Time;durP1;ratioP1;P1;durP2;ratioP2;P2;SDS_P1;SDS_P2;PMS_P1;PMS_P2;Temp;Humidity;BMP_temperature;BMP_pressure;BME280_temperature;BME280_humidity;BME280_pressure;Samples;Min_cycle;Max_cycle;Signal;HPM_P1;HPM_P2
2023/07/04 00:00:40;;;;;;;8.88;1.55;;;13.40;99.90;;;;;;5046072;28;20111;-76
2023/07/04 00:03:05;;;;;;;7.10;1.67;;;13.40;99.90;;;;;;5072539;28;20426;-75
2023/07/04 00:05:31;;;;;;;6.90;1.50;;;13.40;99.90;;;;;;5045296;28;20033;-75
2023/07/04 00:07:57;;;;;;;6.80;1.40;;;13.40;99.90;;;;;;5054625;28;20039;-75
2023/07/04 00:10:23;;;;;;;6.45;1.50;;;13.40;99.90;;;;;;5044174;28;20146;-75
2023/07/04 00:12:49;;;;;;;7.97;1.50;;;13.40;99.90;;;;;;5054151;28;20057;-75
2023/07/04 00:15:14;;;;;;;6.00;1.38;;;13.40;99.90;;;;;;5053797;28;20044;-76
2023/07/04 00:17:42;;;;;;;5.82;1.35;;;13.50;99.90;;;;;;5076510;28;20057;-76
2023/07/04 00:20:09;;;;;;;5.85;1.40;;;13.50;99.90;;;;;;5070881;28;20037;-75
2023/07/04 00:22:36;;;;;;;6.78;1.42;;;13.50;99.90;;;;;;5057315;28;20051;-76
2023/07/04 00:25:04;;;;;;;6.70;1.60;;;13.40;99.90;;;;;;5064896;28;20083;-75
2023/07/04 00:27:33;;;;;;;6.13;1.30;;;13.40;99.90;;;;;;5070134;28;20071;-76
2023/07/04 00:29:59;;;;;;;8.18;1.90;;;13.40;99.90;;;;;;5081746;28;20044;-76
2023/07/04 00:32:26;;;;;;;5.55;1.35;;;13.40;99.90;;;;;;5057048;28;20048;-76
2023/07/04 00:34:51;;;;;;;6.78;1.42;;;13.40;99.90;;;;;;5049880;28;20405;-75
2023/07/04 00:37:21;;;;;;;6.95;1.60;;;13.40;99.90;;;;;;5053626;28;20041;-76
2023/07/04 00:39:48;;;;;;;7.70;1.63;;;13.40;99.90;;;;;;5079390;28;20460;-76
2023/07/04 00:42:14;;;;;;;9.52;2.28;;;13.50;99.90;;;;;;5073558;28;20480;-76
2023/07/04 00:44:47;;;;;;;6.93;1.40;;;13.60;99.90;;;;;;5050947;28;20037;-75
2023/07/04 00:47:21;;;;;;;7.68;1.65;;;13.60;99.90;;;;;;5068979;28;20404;-75
2023/07/04 00:49:49;;;;;;;5.45;1.50;;;13.60;99.90;;;;;;5061757;28;20040;-75
2023/07/04 00:52:25;;;;;;;7.20;1.42;;;13.60;99.90;;;;;;5073631;28;20488;-75
2023/07/04 00:54:57;;;;;;;7.22;1.60;;;13.60;99.90;;;;;;5066593;28;20432;-75
2023/07/04 00:57:25;;;;;;;8.88;1.92;;;13.60;99.90;;;;;;5069981;28;20051;-75
2023/07/04 00:59:57;;;;;;;6.72;1.67;;;13.50;99.90;;;;;;5062632;28;20511;-75
2023/07/04 01:02:26;;;;;;;7.97;1.38;;;13.50;99.90;;;;;;5054896;28;20127;-75
2023/07/04 01:04:52;;;;;;;6.80;1.10;;;13.40;99.90;;;;;;5069506;28;20045;-76
2023/07/04 01:07:43;;;;;;;4.95;1.30;;;13.50;99.90;;;;;;5053538;28;20045;-76
2023/07/04 01:10:13;;;;;;;6.72;1.33;;;13.40;99.90;;;;;;5047056;28;20496;-76
2023/07/04 01:12:39;;;;;;;5.53;1.58;;;13.40;99.90;;;;;;5074785;28;20530;-76
2023/07/04 01:15:06;;;;;;;5.65;1.30;;;13.40;99.90;;;;;;5056560;28;20131;-76
2023/07/04 01:17:32;;;;;;;6.43;1.90;;;13.40;99.90;;;;;;5071090;28;20500;-76
2023/07/04 01:19:59;;;;;;;4.25;1.50;;;13.30;99.90;;;;;;5071435;28;20564;-76
2023/07/04 01:22:34;;;;;;;4.78;1.30;;;13.40;99.90;;;;;;5053900;28;20087;-75
2023/07/04 01:25:11;;;;;;;10.00;1.73;;;13.30;99.90;;;;;;5066489;28;20055;-75
2023/07/04 01:27:38;;;;;;;6.53;1.73;;;13.30;99.90;;;;;;5071082;28;20095;-75
2023/07/04 01:30:10;;;;;;;8.65;1.40;;;13.30;99.90;;;;;;5063965;28;20538;-75
2023/07/04 01:32:36;;;;;;;6.82;1.58;;;13.30;99.90;;;;;;5062381;28;20048;-75
2023/07/04 01:35:05;;;;;;;7.32;1.88;;;13.20;99.90;;;;;;5077331;28;20047;-75
2023/07/04 01:37:31;;;;;;;4.72;1.60;;;13.30;99.90;;;;;;5071661;28;20568;-74
2023/07/04 01:39:58;;;;;;;4.43;1.42;;;13.20;99.90;;;;;;5072303;28;20128;-74
2023/07/04 01:42:30;;;;;;;5.57;1.40;;;13.20;99.90;;;;;;5054880;28;20036;-74
2023/07/04 01:45:06;;;;;;;8.63;1.85;;;13.10;99.90;;;;;;5055916;28;20076;-75
2023/07/04 01:47:33;;;;;;;7.97;1.52;;;13.10;99.90;;;;;;5054416;28;20050;-75
2023/07/04 01:50:00;;;;;;;7.70;1.58;;;13.10;99.90;;;;;;5055740;28;20041;-74
2023/07/04 01:52:27;;;;;;;5.97;1.55;;;13.10;99.90;;;;;;5069939;28;20496;-74
2023/07/04 01:54:53;;;;;;;5.20;1.30;;;13.10;99.90;;;;;;5089292;28;20047;-75
2023/07/04 01:57:19;;;;;;;5.85;1.38;;;13.10;99.90;;;;;;5069948;28;20498;-75
2023/07/04 01:59:44;;;;;;;7.22;1.88;;;13.10;99.90;;;;;;5070959;28;20128;-75
2023/07/04 02:02:10;;;;;;;4.90;1.52;;;13.00;99.90;;;;;;5069186;28;20094;-75
2023/07/04 02:04:36;;;;;;;5.13;1.70;;;13.00;99.90;;;;;;5055190;28;20085;-75
2023/07/04 02:07:02;;;;;;;6.15;1.60;;;13.10;99.90;;;;;;5053156;28;20503;-75
2023/07/04 02:09:27;;;;;;;6.68;1.98;;;13.10;99.90;;;;;;5051927;28;20143;-75
2023/07/04 02:11:53;;;;;;;7.50;2.22;;;13.10;99.90;;;;;;5035294;28;20037;-74
2023/07/04 02:14:19;;;;;;;6.90;1.98;;;13.00;99.90;;;;;;5072120;28;20029;-74
2023/07/04 02:16:45;;;;;;;7.53;2.13;;;13.10;99.90;;;;;;5053398;28;20481;-75
2023/07/04 02:19:11;;;;;;;7.70;2.30;;;13.10;99.90;;;;;;5074297;28;20038;-74
2023/07/04 02:21:36;;;;;;;9.27;2.20;;;13.20;99.90;;;;;;5079204;28;20508;-75
2023/07/04 02:24:02;;;;;;;10.23;2.75;;;13.10;99.90;;;;;;5055415;28;20063;-75
2023/07/04 02:26:29;;;;;;;9.93;2.80;;;13.10;99.90;;;;;;5069671;28;20044;-76
2023/07/04 02:28:55;;;;;;;7.65;2.28;;;13.10;99.90;;;;;;5071104;28;20075;-75
2023/07/04 02:31:21;;;;;;;7.18;2.60;;;13.20;99.90;;;;;;5054056;28;20044;-75
2023/07/04 02:33:47;;;;;;;8.20;2.63;;;13.10;99.90;;;;;;5042462;28;20037;-75
2023/07/04 02:36:12;;;;;;;11.15;3.30;;;13.10;99.90;;;;;;5052655;28;20055;-75
2023/07/04 02:38:39;;;;;;;8.25;2.83;;;13.10;99.90;;;;;;5061885;28;20392;-75
2023/07/04 02:41:05;;;;;;;10.60;3.42;;;13.20;99.90;;;;;;5053508;28;20428;-75
2023/07/04 02:43:31;;;;;;;9.73;3.42;;;13.20;99.90;;;;;;5056957;28;20594;-75
2023/07/04 02:45:56;;;;;;;11.48;3.78;;;13.20;99.90;;;;;;5057926;28;20119;-75
2023/07/04 02:48:24;;;;;;;12.35;3.40;;;13.20;99.90;;;;;;5055048;28;20055;-75
2023/07/04 02:50:49;;;;;;;10.77;3.42;;;13.20;99.90;;;;;;5072932;28;20049;-75
2023/07/04 02:53:20;;;;;;;10.45;3.20;;;13.20;99.90;;;;;;5075624;28;20094;-75
2023/07/04 02:55:46;;;;;;;9.38;3.33;;;13.30;99.90;;;;;;5058878;28;20400;-75
2023/07/04 02:58:12;;;;;;;11.98;3.70;;;13.30;99.90;;;;;;5061374;28;20176;-75
2023/07/04 03:00:38;;;;;;;11.35;3.00;;;13.40;99.90;;;;;;5047402;28;20471;-75
2023/07/04 03:03:03;;;;;;;11.25;3.92;;;13.40;99.90;;;;;;5048869;28;20086;-75
2023/07/04 03:05:29;;;;;;;12.90;3.97;;;13.40;99.90;;;;;;5026137;28;20056;-75
2023/07/04 03:07:54;;;;;;;8.82;3.33;;;13.40;99.90;;;;;;5039191;28;20036;-75
2023/07/04 03:10:20;;;;;;;11.50;3.53;;;13.50;99.90;;;;;;5044576;28;20040;-75
2023/07/04 03:12:45;;;;;;;12.43;3.38;;;13.60;99.90;;;;;;5058547;28;20132;-75
2023/07/04 03:15:11;;;;;;;8.93;3.40;;;13.60;99.90;;;;;;5028642;28;21397;-75
2023/07/04 03:17:37;;;;;;;9.82;3.20;;;13.50;99.90;;;;;;5035235;28;20041;-75
2023/07/04 03:20:08;;;;;;;8.45;3.10;;;13.50;99.90;;;;;;5071767;28;21455;-75
2023/07/04 03:22:33;;;;;;;13.43;3.65;;;13.40;99.90;;;;;;5040512;28;20056;-75
2023/07/04 03:24:59;;;;;;;9.70;3.25;;;13.50;99.90;;;;;;5055666;28;20044;-75
2023/07/04 03:27:25;;;;;;;10.68;3.05;;;13.60;99.90;;;;;;5036654;28;20053;-75
2023/07/04 03:29:50;;;;;;;9.10;3.78;;;13.60;99.90;;;;;;5049337;28;20155;-75
2023/07/04 03:32:16;;;;;;;11.18;3.17;;;13.50;99.90;;;;;;5040148;28;20045;-75
2023/07/04 03:34:42;;;;;;;9.40;3.00;;;13.60;99.90;;;;;;5041774;28;20116;-75
2023/07/04 03:37:07;;;;;;;10.10;3.20;;;13.60;99.90;;;;;;5024435;28;20040;-75
2023/07/04 03:39:33;;;;;;;9.15;3.22;;;13.60;99.90;;;;;;5029456;28;20049;-75
2023/07/04 03:41:58;;;;;;;10.45;2.90;;;13.70;99.90;;;;;;5031243;28;20499;-75
2023/07/04 03:44:24;;;;;;;10.73;2.90;;;13.60;99.90;;;;;;5039908;28;20130;-75
2023/07/04 03:46:49;;;;;;;9.98;3.03;;;13.70;99.90;;;;;;5023545;28;20090;-75
2023/07/04 03:49:15;;;;;;;9.38;2.70;;;13.70;99.90;;;;;;5041625;28;20041;-75
2023/07/04 03:51:40;;;;;;;10.38;2.72;;;13.70;99.90;;;;;;5081641;28;20036;-76
2023/07/04 03:54:06;;;;;;;9.95;3.22;;;13.70;99.90;;;;;;5057698;28;20040;-76
2023/07/04 03:56:31;;;;;;;10.52;2.90;;;13.70;99.90;;;;;;5058007;28;20082;-75
2023/07/04 03:58:57;;;;;;;8.73;2.67;;;13.70;99.90;;;;;;5045482;28;20120;-75
2023/07/04 04:01:24;;;;;;;6.80;2.65;;;13.70;99.90;;;;;;5059772;28;20075;-75
2023/07/04 04:03:53;;;;;;;7.78;2.80;;;13.70;99.90;;;;;;5043226;28;20055;-75
2023/07/04 04:06:19;;;;;;;9.55;2.88;;;13.70;99.90;;;;;;5050811;28;20098;-75
2023/07/04 04:08:44;;;;;;;11.23;3.20;;;13.70;99.90;;;;;;5031805;28;20690;-75
2023/07/04 04:11:10;;;;;;;8.70;2.70;;;13.70;99.90;;;;;;5023782;28;20093;-75
2023/07/04 04:13:36;;;;;;;12.60;3.17;;;13.60;99.90;;;;;;5042833;28;20712;-75
2023/07/04 04:16:01;;;;;;;9.40;3.47;;;13.60;99.90;;;;;;5041391;28;20040;-75
2023/07/04 04:18:27;;;;;;;12.82;3.33;;;13.70;99.90;;;;;;5036583;28;20025;-75
2023/07/04 04:20:52;;;;;;;12.00;3.20;;;13.70;99.90;;;;;;5030300;28;20404;-75
2023/07/04 04:23:18;;;;;;;11.02;3.42;;;13.70;99.90;;;;;;5042493;28;20767;-75
2023/07/04 04:25:45;;;;;;;10.95;3.00;;;13.80;99.90;;;;;;5045368;28;20128;-75
2023/07/04 04:28:11;;;;;;;10.88;3.58;;;13.80;99.90;;;;;;5032326;28;20534;-76
2023/07/04 04:30:37;;;;;;;10.70;3.10;;;13.80;99.90;;;;;;5040873;28;20072;-75
2023/07/04 04:33:03;;;;;;;11.02;3.10;;;13.70;99.90;;;;;;5049232;28;20116;-76
2023/07/04 04:35:31;;;;;;;10.77;3.17;;;13.70;99.90;;;;;;5032747;28;20396;-76
2023/07/04 04:37:57;;;;;;;7.57;3.25;;;13.70;99.90;;;;;;5040621;28;20036;-75
2023/07/04 04:40:23;;;;;;;10.07;3.10;;;13.80;99.90;;;;;;5041992;28;20040;-75
2023/07/04 04:42:53;;;;;;;11.45;3.22;;;13.80;99.90;;;;;;5044952;28;20040;-76
2023/07/04 04:45:25;;;;;;;10.65;3.40;;;13.90;99.90;;;;;;5041709;28;20129;-75
2023/07/04 04:47:56;;;;;;;11.40;3.22;;;14.00;99.90;;;;;;5041544;28;20045;-75
2023/07/04 04:50:30;;;;;;;13.43;3.88;;;14.00;99.90;;;;;;5048240;28;20048;-75
2023/07/04 04:52:57;;;;;;;11.90;3.72;;;14.10;99.90;;;;;;5051445;28;20153;-75
2023/07/04 04:55:23;;;;;;;9.43;3.05;;;14.00;99.90;;;;;;5047114;28;20037;-76
2023/07/04 04:57:49;;;;;;;10.07;2.67;;;14.10;99.90;;;;;;5060370;28;20032;-75
2023/07/04 05:00:16;;;;;;;9.70;3.53;;;14.10;99.90;;;;;;5027174;28;20183;-76
2023/07/04 05:02:42;;;;;;;12.48;4.07;;;14.10;99.90;;;;;;5032237;28;20072;-75
2023/07/04 05:05:08;;;;;;;7.78;2.97;;;14.20;99.90;;;;;;5027504;28;20073;-75
2023/07/04 05:07:34;;;;;;;11.15;3.40;;;14.20;99.90;;;;;;5040872;28;20045;-76
2023/07/04 05:10:00;;;;;;;8.88;3.17;;;14.10;99.90;;;;;;5043824;28;20055;-75
2023/07/04 05:12:25;;;;;;;9.95;3.03;;;14.20;99.90;;;;;;5045740;28;20047;-75
2023/07/04 05:14:51;;;;;;;9.82;3.40;;;14.20;99.90;;;;;;5048461;28;20118;-75
2023/07/04 05:17:17;;;;;;;10.60;3.17;;;14.20;99.90;;;;;;5033454;28;20381;-75
2023/07/04 05:19:43;;;;;;;13.23;3.50;;;14.10;99.90;;;;;;5055357;28;20097;-76
2023/07/04 05:22:09;;;;;;;12.52;3.55;;;14.20;99.90;;;;;;5042525;28;20563;-76
2023/07/04 05:24:34;;;;;;;9.68;3.35;;;14.10;99.90;;;;;;5036616;28;20045;-75
2023/07/04 05:27:00;;;;;;;12.80;3.38;;;14.20;99.90;;;;;;5048360;28;20062;-76
2023/07/04 05:29:25;;;;;;;8.30;3.22;;;14.30;99.90;;;;;;5040241;28;20056;-76
2023/07/04 05:31:51;;;;;;;7.85;3.03;;;14.30;99.90;;;;;;5042882;28;20098;-75
2023/07/04 05:34:17;;;;;;;8.90;3.25;;;14.30;99.90;;;;;;5022836;28;20373;-75
2023/07/04 05:36:42;;;;;;;9.77;2.95;;;14.40;99.90;;;;;;5046472;28;20064;-75
2023/07/04 05:39:08;;;;;;;9.23;2.72;;;14.40;99.90;;;;;;5044802;28;20029;-76
2023/07/04 05:41:35;;;;;;;9.93;2.90;;;14.50;99.90;;;;;;5045030;28;20120;-75
2023/07/04 05:44:04;;;;;;;9.52;3.13;;;14.50;99.90;;;;;;5029259;28;20503;-75
2023/07/04 05:46:29;;;;;;;8.95;2.72;;;14.50;99.90;;;;;;5042977;28;20136;-75
2023/07/04 05:48:56;;;;;;;7.30;3.00;;;14.40;99.90;;;;;;5026042;28;20455;-76
2023/07/04 05:51:22;;;;;;;6.95;2.67;;;14.50;99.90;;;;;;5038484;28;20037;-76
2023/07/04 05:53:50;;;;;;;8.93;2.38;;;14.50;99.90;;;;;;5056586;28;20405;-75
2023/07/04 05:56:21;;;;;;;9.88;2.50;;;14.60;99.90;;;;;;5047653;28;20045;-76
2023/07/04 05:58:52;;;;;;;9.43;2.53;;;14.60;99.90;;;;;;5049175;28;20041;-76
2023/07/04 06:01:22;;;;;;;8.88;2.40;;;14.60;99.90;;;;;;5060823;28;20040;-76
2023/07/04 06:03:48;;;;;;;7.72;2.53;;;14.60;99.90;;;;;;5038562;28;20040;-76
2023/07/04 06:06:19;;;;;;;9.63;2.25;;;14.60;99.90;;;;;;5039901;28;20064;-76
2023/07/04 06:08:44;;;;;;;9.52;2.10;;;14.70;99.90;;;;;;5044348;28;20549;-76
2023/07/04 06:11:10;;;;;;;8.80;2.30;;;14.70;99.90;;;;;;5061544;28;20028;-76
2023/07/04 06:13:36;;;;;;;8.43;2.00;;;14.80;99.90;;;;;;5072410;28;20146;-76
2023/07/04 06:16:03;;;;;;;6.22;1.58;;;14.80;99.90;;;;;;5054391;28;20123;-76
2023/07/04 06:18:29;;;;;;;8.57;2.00;;;14.80;99.90;;;;;;5055594;28;20032;-76
2023/07/04 06:21:25;;;;;;;5.32;1.90;;;14.80;99.90;;;;;;5069844;28;20048;-76
2023/07/04 06:23:55;;;;;;;7.22;1.80;;;14.90;99.90;;;;;;5068815;28;20488;-76
2023/07/04 06:26:22;;;;;;;4.80;1.60;;;14.90;99.90;;;;;;5054529;28;20036;-76
2023/07/04 06:28:49;;;;;;;7.28;1.52;;;14.90;99.90;;;;;;5071878;28;20048;-76
2023/07/04 06:31:16;;;;;;;8.23;1.48;;;15.00;99.90;;;;;;5071031;28;20044;-76
2023/07/04 06:33:42;;;;;;;10.13;1.90;;;15.00;99.90;;;;;;5055494;28;20048;-76
2023/07/04 06:36:14;;;;;;;8.13;1.70;;;15.00;99.90;;;;;;5052162;28;20423;-76
2023/07/04 06:38:40;;;;;;;5.53;1.60;;;15.00;99.90;;;;;;5054140;28;20043;-76
2023/07/04 06:41:08;;;;;;;6.20;1.60;;;14.90;99.90;;;;;;5054236;28;20395;-76
2023/07/04 06:43:34;;;;;;;5.53;1.58;;;15.00;99.90;;;;;;5072005;28;20119;-76
2023/07/04 06:46:01;;;;;;;8.10;2.00;;;15.00;99.90;;;;;;5071021;28;20032;-76
2023/07/04 06:48:28;;;;;;;4.55;1.48;;;15.10;99.90;;;;;;5071573;28;20124;-76
2023/07/04 06:51:16;;;;;;;6.18;2.00;;;15.20;99.90;;;;;;5073060;28;20098;-76
2023/07/04 06:53:42;;;;;;;6.55;1.40;;;15.20;99.90;;;;;;5070175;28;20041;-76
2023/07/04 06:56:11;;;;;;;5.25;1.58;;;15.30;99.90;;;;;;5053710;28;20040;-77
2023/07/04 06:58:40;;;;;;;6.18;1.50;;;15.20;99.90;;;;;;5054973;28;20036;-76
2023/07/04 07:01:06;;;;;;;6.55;1.40;;;15.20;99.90;;;;;;5071087;28;20424;-76
2023/07/04 07:03:32;;;;;;;6.50;1.67;;;15.20;99.90;;;;;;5055858;28;20036;-76
2023/07/04 07:06:01;;;;;;;6.07;1.50;;;15.30;99.90;;;;;;5071153;28;20068;-76
2023/07/04 07:08:27;;;;;;;5.93;1.77;;;15.30;99.90;;;;;;5054846;28;20059;-76
2023/07/04 07:11:00;;;;;;;5.90;1.27;;;15.30;99.90;;;;;;5070492;28;20041;-76
2023/07/04 07:13:26;;;;;;;6.85;1.45;;;15.50;99.90;;;;;;5044976;28;20041;-76
2023/07/04 07:16:04;;;;;;;5.20;1.77;;;15.50;99.90;;;;;;5070396;28;20036;-76
2023/07/04 07:18:32;;;;;;;7.88;1.90;;;15.50;99.90;;;;;;5055121;28;20090;-76
2023/07/04 07:20:58;;;;;;;3.90;1.63;;;15.50;99.90;;;;;;5070460;28;20075;-76
2023/07/04 07:23:24;;;;;;;6.97;1.80;;;15.60;99.90;;;;;;5054864;28;20079;-76
2023/07/04 07:25:57;;;;;;;8.45;1.80;;;15.50;99.90;;;;;;5069146;28;20367;-76
2023/07/04 07:28:25;;;;;;;6.20;1.73;;;15.50;99.90;;;;;;5071303;28;20057;-76
2023/07/04 07:31:01;;;;;;;7.47;1.73;;;15.70;99.90;;;;;;5074044;28;20047;-76
2023/07/04 07:33:26;;;;;;;6.38;1.70;;;15.60;99.90;;;;;;5074952;28;20045;-76
2023/07/04 07:35:52;;;;;;;6.63;1.90;;;15.60;99.90;;;;;;5055519;28;20046;-76
2023/07/04 07:38:17;;;;;;;6.40;1.63;;;15.60;99.90;;;;;;5074979;28;20041;-76
2023/07/04 07:40:50;;;;;;;5.82;1.42;;;15.60;99.90;;;;;;5056131;28;20036;-76
2023/07/04 07:43:15;;;;;;;3.75;1.48;;;15.70;99.90;;;;;;5057375;28;20501;-76
2023/07/04 07:45:41;;;;;;;6.38;1.30;;;15.70;99.90;;;;;;5057937;28;20085;-76
2023/07/04 07:48:07;;;;;;;9.00;1.95;;;15.70;99.90;;;;;;5073892;28;20511;-76
2023/07/04 07:50:33;;;;;;;7.45;2.15;;;15.90;99.90;;;;;;5074651;28;20033;-76
2023/07/04 07:52:58;;;;;;;6.22;1.60;;;16.00;99.90;;;;;;5056715;28;20048;-76
2023/07/04 07:55:24;;;;;;;10.00;1.90;;;16.00;99.90;;;;;;5072594;28;20234;-76
2023/07/04 07:57:49;;;;;;;5.20;1.45;;;16.00;99.90;;;;;;5057870;28;20055;-77
2023/07/04 08:00:15;;;;;;;8.35;1.83;;;16.00;99.90;;;;;;5046758;28;20037;-76
2023/07/04 08:02:41;;;;;;;8.65;2.28;;;16.00;99.90;;;;;;5063174;28;20420;-75
2023/07/04 08:05:07;;;;;;;8.43;1.70;;;16.00;99.90;;;;;;5056480;28;20489;-74
2023/07/04 08:07:32;;;;;;;7.03;1.60;;;16.00;99.90;;;;;;5052142;28;20036;-75
2023/07/04 08:09:59;;;;;;;6.68;1.50;;;16.10;99.90;;;;;;5072759;28;20184;-75
2023/07/04 08:12:25;;;;;;;6.65;1.70;;;16.20;99.90;;;;;;5052468;28;20036;-75
2023/07/04 08:14:51;;;;;;;6.18;2.40;;;16.30;99.90;;;;;;5044504;28;20456;-75
2023/07/04 08:17:16;;;;;;;7.82;2.00;;;16.30;99.90;;;;;;5074025;28;20064;-83
2023/07/04 08:19:42;;;;;;;5.85;1.60;;;16.40;99.90;;;;;;5057509;28;20043;-76
2023/07/04 08:22:07;;;;;;;8.20;1.52;;;16.20;99.90;;;;;;5074056;28;20040;-75
2023/07/04 08:24:33;;;;;;;6.10;1.95;;;16.40;99.90;;;;;;5042962;28;20037;-75
2023/07/04 08:26:58;;;;;;;5.97;1.55;;;16.50;99.90;;;;;;5053917;28;20041;-75
2023/07/04 08:29:24;;;;;;;6.97;2.00;;;16.40;99.90;;;;;;5068497;28;20076;-75
2023/07/04 08:31:50;;;;;;;8.05;1.85;;;16.40;99.90;;;;;;5055560;28;20044;-75
2023/07/04 08:34:16;;;;;;;7.68;1.65;;;16.50;99.90;;;;;;5070080;28;20033;-75
2023/07/04 08:36:44;;;;;;;7.00;1.60;;;16.50;99.90;;;;;;5057925;28;20503;-74
2023/07/04 08:39:09;;;;;;;7.50;1.70;;;16.50;99.90;;;;;;5073390;28;20148;-75
2023/07/04 08:41:56;;;;;;;5.25;1.60;;;16.50;99.90;;;;;;5072352;28;20392;-75
2023/07/04 08:44:30;;;;;;;7.90;1.67;;;16.60;99.90;;;;;;5059513;28;20044;-75
2023/07/04 08:46:58;;;;;;;7.78;1.70;;;16.70;99.90;;;;;;5066628;28;20097;-75
2023/07/04 08:49:46;;;;;;;5.97;1.60;;;16.60;99.90;;;;;;5073318;28;20032;-74
2023/07/04 08:52:34;;;;;;;5.95;1.60;;;16.60;99.90;;;;;;5073570;28;20080;-75
2023/07/04 08:55:00;;;;;;;8.52;1.88;;;16.60;99.90;;;;;;5070354;28;20036;-75
2023/07/04 08:57:47;;;;;;;6.38;1.77;;;16.70;99.90;;;;;;5037736;28;20101;-75
2023/07/04 09:00:39;;;;;;;6.72;1.42;;;16.80;99.90;;;;;;5039293;28;20067;-74
2023/07/04 09:03:32;;;;;;;7.07;1.65;;;16.80;99.90;;;;;;5055143;28;20053;-75
2023/07/04 09:06:13;;;;;;;9.90;1.80;;;16.80;99.90;;;;;;5073386;28;20435;-75
2023/07/04 09:09:05;;;;;;;6.63;1.48;;;16.80;99.90;;;;;;5063414;28;20033;-75
2023/07/04 09:11:32;;;;;;;7.80;1.50;;;16.80;99.90;;;;;;5039597;28;20636;-75
2023/07/04 09:14:26;;;;;;;7.75;1.70;;;16.80;99.90;;;;;;5052873;28;20535;-74
2023/07/04 09:16:53;;;;;;;8.00;1.75;;;16.80;99.90;;;;;;5035826;28;20091;-74
2023/07/04 09:19:20;;;;;;;8.95;1.77;;;16.80;99.90;;;;;;5055713;28;20481;-74
2023/07/04 09:21:46;;;;;;;8.88;1.98;;;16.80;99.90;;;;;;5056941;28;20122;-74
2023/07/04 09:24:12;;;;;;;11.57;2.10;;;16.80;99.90;;;;;;5066770;28;20086;-75
2023/07/04 09:26:49;;;;;;;9.13;1.73;;;16.90;99.90;;;;;;5061584;28;20093;-75
2023/07/04 09:29:24;;;;;;;10.73;2.60;;;17.10;99.90;;;;;;5059369;28;20141;-74
2023/07/04 09:32:00;;;;;;;11.90;2.05;;;17.20;99.90;;;;;;5068376;28;20037;-74
2023/07/04 09:34:36;;;;;;;8.80;2.10;;;17.20;99.90;;;;;;5065053;28;20118;-74
2023/07/04 09:37:10;;;;;;;12.52;2.47;;;17.20;99.90;;;;;;5035831;28;20089;-74
2023/07/04 09:39:46;;;;;;;8.70;2.03;;;17.30;99.90;;;;;;5058907;28;20397;-75
2023/07/04 09:42:12;;;;;;;12.88;2.10;;;17.30;99.90;;;;;;5054356;28;20105;-74
2023/07/04 09:44:38;;;;;;;10.98;2.22;;;17.20;99.90;;;;;;5052709;28;20128;-75
2023/07/04 09:47:05;;;;;;;9.55;2.08;;;17.20;99.90;;;;;;5038217;28;20036;-75
2023/07/04 09:49:36;;;;;;;10.60;2.35;;;17.20;99.90;;;;;;5052273;28;20036;-74
2023/07/04 09:52:06;;;;;;;12.07;2.30;;;17.20;99.90;;;;;;5057287;28;20037;-74
2023/07/04 09:54:36;;;;;;;9.50;2.03;;;17.30;99.90;;;;;;5064772;28;21086;-74
2023/07/04 09:57:28;;;;;;;9.13;2.33;;;17.40;99.90;;;;;;5045445;28;20052;-74
2023/07/04 10:00:12;;;;;;;10.68;2.00;;;17.70;99.90;;;;;;5039518;28;20028;-75
2023/07/04 10:02:38;;;;;;;9.68;2.45;;;17.90;99.90;;;;;;5060091;28;20493;-74
2023/07/04 10:05:03;;;;;;;10.57;2.22;;;17.80;99.90;;;;;;5069748;28;20055;-74
2023/07/04 10:07:29;;;;;;;9.30;2.10;;;17.80;99.90;;;;;;5054126;28;20037;-74
2023/07/04 10:10:04;;;;;;;9.18;2.08;;;17.80;99.90;;;;;;5039353;28;20074;-74
2023/07/04 10:12:44;;;;;;;13.65;2.25;;;17.80;99.90;;;;;;5058326;28;20098;-74
2023/07/04 10:15:10;;;;;;;12.18;2.28;;;17.80;99.90;;;;;;5071574;28;20392;-74
2023/07/04 10:17:39;;;;;;;12.05;2.08;;;17.90;99.90;;;;;;5053403;28;20037;-74
2023/07/04 10:20:12;;;;;;;9.30;2.00;;;18.00;99.90;;;;;;5062517;28;20044;-74
2023/07/04 10:22:51;;;;;;;10.38;2.00;;;18.00;99.90;;;;;;5070475;28;20051;-75
2023/07/04 10:25:21;;;;;;;7.35;1.75;;;18.10;99.90;;;;;;5069182;28;20052;-74
2023/07/04 10:27:58;;;;;;;6.88;1.77;;;18.30;99.90;;;;;;5055983;28;20064;-74
2023/07/04 10:30:30;;;;;;;9.10;1.60;;;18.50;99.90;;;;;;5060196;28;20070;-74
2023/07/04 10:33:13;;;;;;;11.77;2.35;;;18.80;99.90;;;;;;5068174;28;20480;-74
2023/07/04 10:35:43;;;;;;;9.90;1.88;;;19.00;99.90;;;;;;5071311;28;20396;-74
2023/07/04 10:38:27;;;;;;;11.05;1.95;;;19.00;99.90;;;;;;5071728;28;20056;-74
2023/07/04 10:40:54;;;;;;;9.32;2.10;;;18.80;99.90;;;;;;5045593;28;20029;-74
2023/07/04 10:43:34;;;;;;;7.88;2.10;;;18.90;99.90;;;;;;5037262;28;20041;-74
2023/07/04 10:46:02;;;;;;;11.15;2.22;;;19.00;99.90;;;;;;5060687;28;20037;-74
2023/07/04 10:48:34;;;;;;;7.90;1.80;;;19.10;99.90;;;;;;5065422;28;20119;-75
2023/07/04 10:51:16;;;;;;;9.57;2.20;;;19.20;99.90;;;;;;5064380;28;20071;-75
2023/07/04 10:53:41;;;;;;;9.13;2.00;;;19.20;99.90;;;;;;5059488;28;20037;-74
2023/07/04 10:56:24;;;;;;;9.15;2.25;;;19.30;99.90;;;;;;5068893;28;20043;-74
2023/07/04 10:58:52;;;;;;;10.20;3.53;;;19.30;99.90;;;;;;5053472;28;20036;-75
2023/07/04 11:01:24;;;;;;;11.65;2.30;;;19.30;99.90;;;;;;5037699;28;20048;-74
2023/07/04 11:04:04;;;;;;;9.73;1.92;;;19.40;99.90;;;;;;5053124;28;20095;-75
2023/07/04 11:06:37;;;;;;;8.88;1.80;;;19.50;99.90;;;;;;5037358;28;20473;-74
2023/07/04 11:09:06;;;;;;;9.48;1.73;;;19.70;99.90;;;;;;5047511;28;20119;-75
2023/07/04 11:11:32;;;;;;;7.05;1.33;;;19.50;99.90;;;;;;5061108;28;20481;-74
2023/07/04 11:14:03;;;;;;;8.10;2.08;;;19.40;99.90;;;;;;5070854;28;20041;-74
2023/07/04 11:16:31;;;;;;;6.60;1.88;;;19.40;99.90;;;;;;5070296;28;20029;-74
2023/07/04 11:19:15;;;;;;;9.30;2.10;;;19.40;99.90;;;;;;5038256;28;20055;-75
2023/07/04 11:21:54;;;;;;;7.40;1.60;;;19.30;99.90;;;;;;5082854;28;20478;-74
2023/07/04 11:24:20;;;;;;;11.20;2.38;;;19.30;99.90;;;;;;5062480;28;20048;-75
2023/07/04 11:27:11;;;;;;;7.25;1.83;;;19.40;99.90;;;;;;5045919;28;20123;-74
2023/07/04 11:29:52;;;;;;;8.10;1.80;;;19.60;99.90;;;;;;5035831;28;20049;-74
2023/07/04 11:32:21;;;;;;;9.27;2.00;;;19.80;99.90;;;;;;5071991;28;20028;-74
2023/07/04 11:34:51;;;;;;;8.38;2.00;;;19.90;99.90;;;;;;5062313;28;20124;-75
2023/07/04 11:37:30;;;;;;;13.65;2.67;;;19.80;99.90;;;;;;5056324;28;20142;-74
2023/07/04 11:39:59;;;;;;;8.50;1.98;;;20.00;99.90;;;;;;5072599;28;20040;-74
2023/07/04 11:42:37;;;;;;;8.77;1.80;;;20.00;99.90;;;;;;5067763;28;20030;-75
2023/07/04 11:45:07;;;;;;;9.02;1.92;;;20.00;99.90;;;;;;5068627;28;20060;-74
2023/07/04 11:47:40;;;;;;;8.95;2.13;;;19.90;99.90;;;;;;5074602;28;20566;-74
2023/07/04 11:50:20;;;;;;;10.05;2.10;;;19.80;99.90;;;;;;5049546;28;20070;-74
2023/07/04 11:52:59;;;;;;;9.80;2.47;;;19.70;99.90;;;;;;5065129;28;20041;-74
2023/07/04 11:55:33;;;;;;;8.50;1.90;;;19.40;99.90;;;;;;5044819;28;20119;-74
2023/07/04 11:58:07;;;;;;;10.30;1.90;;;19.30;99.90;;;;;;5048379;28;20389;-74
2023/07/04 12:00:37;;;;;;;8.20;2.00;;;19.30;99.90;;;;;;5072509;28;20033;-74
2023/07/04 12:03:17;;;;;;;8.30;1.83;;;19.50;99.90;;;;;;5052838;28;20051;-75
2023/07/04 12:06:32;;;;;;;9.93;2.03;;;19.60;99.90;;;;;;5070738;28;20052;-74
2023/07/04 12:08:59;;;;;;;10.23;2.08;;;19.70;99.90;;;;;;5057975;28;20091;-74
2023/07/04 12:11:37;;;;;;;9.43;2.00;;;19.50;99.90;;;;;;5048586;28;20052;-74
2023/07/04 12:14:04;;;;;;;7.10;2.00;;;19.60;99.90;;;;;;5071698;28;20043;-74
2023/07/04 12:16:30;;;;;;;12.20;2.47;;;19.70;99.90;;;;;;5071533;28;20039;-74
2023/07/04 12:18:56;;;;;;;9.55;1.98;;;19.70;99.90;;;;;;5059367;28;20072;-74
2023/07/04 12:21:22;;;;;;;8.38;2.10;;;19.70;99.90;;;;;;5073458;28;20040;-74
2023/07/04 12:23:49;;;;;;;11.63;2.42;;;19.80;99.90;;;;;;5064623;28;20048;-74
2023/07/04 12:26:21;;;;;;;8.18;1.90;;;19.80;99.90;;;;;;5086291;28;20048;-74
2023/07/04 12:28:49;;;;;;;;;;;20.00;99.90;;;;;;5056475;28;20055;-74
2023/07/04 12:31:15;;;;;;;8.40;1.90;;;20.10;99.90;;;;;;5062503;28;19932;-74
2023/07/04 12:33:44;;;;;;;9.55;1.70;;;20.10;99.90;;;;;;5063562;28;20504;-74
2023/07/04 12:36:15;;;;;;;8.38;1.98;;;20.10;99.90;;;;;;5070417;28;20488;-75
2023/07/04 12:38:49;;;;;;;10.13;2.00;;;20.10;99.90;;;;;;5073817;28;20382;-74
2023/07/04 12:41:17;;;;;;;7.38;1.85;;;20.00;99.90;;;;;;5040662;28;20535;-74
2023/07/04 12:43:43;;;;;;;8.27;1.70;;;20.10;99.90;;;;;;5061974;28;20041;-76
2023/07/04 12:46:14;;;;;;;9.88;2.05;;;20.10;99.90;;;;;;5071281;28;20055;-77
2023/07/04 12:48:41;;;;;;;12.60;2.42;;;20.00;99.90;;;;;;5072713;28;20115;-76
2023/07/04 12:51:13;;;;;;;9.30;2.58;;;20.00;99.90;;;;;;5074120;28;20044;-76
2023/07/04 12:53:40;;;;;;;8.68;2.35;;;20.00;99.90;;;;;;5063041;28;20476;-76
2023/07/04 12:56:09;;;;;;;9.60;2.08;;;20.00;99.90;;;;;;5053693;28;20041;-76